Time;durP1;ratioP1;P1;durP2;ratioP2;P2;SDS_P1;SDS_P2;PMS_P1;PMS_P2;Temp;Humidity;BMP_temperature;BMP_pressure;BME280_temperature;BME280_humidity;BME280_pressure;Samples;Min_cycle;Max_cycle;Signal;HPM_P1;HPM_P2
2022/09/06 00:02:31;;;;;;;;;;;;;;;26.86;nan;101006.69;5033608;28;649;-37
2022/09/06 00:05:17;;;;;;;;;;;;;;;26.88;nan;101012.75;5033675;28;1347;-37
2022/09/06 00:08:04;;;;;;;;;;;;;;;26.86;nan;101004.88;5033853;28;1906;-38
2022/09/06 00:10:56;;;;;;;;;;;;;;;26.86;nan;101004.03;5034169;28;1252;-38
2022/09/06 00:13:45;;;;;;;;;;;;;;;26.85;nan;101005.00;5033622;28;610;-36
2022/09/06 00:16:31;;;;;;;;;;;;;;;26.82;nan;100999.91;5033846;28;1061;-37
2022/09/06 00:19:16;;;;;;;;;;;;;;;26.81;nan;101001.72;5033076;28;1221;-38
2022/09/06 00:22:01;;;;;;;;;;;;;;;26.83;nan;100999.78;5033889;28;1097;-37
2022/09/06 00:24:46;;;;;;;;;;;;;;;26.79;nan;100995.66;5032498;28;1336;-37
2022/09/06 00:27:32;;;;;;;;;;;;;;;26.80;nan;101001.88;5033480;28;1967;-39
2022/09/06 00:30:17;;;;;;;;;;;;;;;26.76;nan;100998.59;5033827;28;1357;-37
2022/09/06 00:33:02;;;;;;;;;;;;;;;26.78;nan;100991.28;5033335;28;639;-37
2022/09/06 00:35:48;;;;;;;;;;;;;;;26.75;nan;100994.22;5033416;28;1328;-37
2022/09/06 00:38:33;;;;;;;;;;;;;;;26.74;nan;101000.56;5033052;28;689;-37
2022/09/06 00:41:19;;;;;;;;;;;;;;;26.76;nan;100992.41;5033319;28;1153;-37
2022/09/06 00:44:05;;;;;;;;;;;;;;;26.77;nan;100983.41;5033271;28;1324;-37
2022/09/06 00:46:51;;;;;;;;;;;;;;;26.77;nan;100980.75;5032691;28;1591;-37
2022/09/06 00:49:43;;;;;;;;;;;;;;;26.81;nan;100980.34;5030940;28;1616;-37
2022/09/06 00:52:29;;;;;;;;;;;;;;;26.79;nan;100968.06;5013690;28;622;-38
2022/09/06 00:55:15;;;;;;;;;;;;;;;26.80;nan;100967.13;5013241;28;1369;-38
2022/09/06 00:58:00;;;;;;;;;;;;;;;26.82;nan;100967.84;5012800;28;679;-37
2022/09/06 01:00:46;;;;;;;;;;;;;;;26.83;nan;100977.56;5013033;28;1253;-37
2022/09/06 01:03:31;;;;;;;;;;;;;;;26.84;nan;100976.59;5012105;28;598;-38
2022/09/06 01:06:17;;;;;;;;;;;;;;;26.83;nan;100966.88;5013339;28;1101;-38
2022/09/06 01:09:20;;;;;;;;;;;;;;;26.81;nan;100967.00;5012767;28;1910;-37
2022/09/06 01:12:08;;;;;;;;;;;;;;;26.81;nan;100967.00;5013471;28;1083;-38
2022/09/06 01:15:13;;;;;;;;;;;;;;;26.82;nan;100968.69;5012929;28;1623;-38
2022/09/06 01:18:10;;;;;;;;;;;;;;;26.82;nan;100968.69;5012515;28;637;-38
2022/09/06 01:20:56;;;;;;;;;;;;;;;26.80;nan;100967.13;5012494;28;1375;-37
2022/09/06 01:24:03;;;;;;;;;;;;;;;26.76;nan;100961.19;5012700;28;614;-37
2022/09/06 01:27:08;;;;;;;;;;;;;;;26.74;nan;100964.97;5013768;28;1128;-38
2022/09/06 01:30:05;;;;;;;;;;;;;;;26.71;nan;100960.75;5013001;28;1174;-37
2022/09/06 01:33:05;;;;;;;;;;;;;;;26.74;nan;100963.16;5020492;28;671;-37
2022/09/06 01:35:56;;;;;;;;;;;;;;;26.75;nan;100964.81;5031412;28;1245;-38
2022/09/06 01:38:41;;;;;;;;;;;;;;;26.70;nan;100955.53;5032262;28;561;-38
2022/09/06 01:41:27;;;;;;;;;;;;;;;26.69;nan;100957.34;5031347;28;959;-38
2022/09/06 01:44:13;;;;;;;;;;;;;;;26.66;nan;100954.94;5032291;28;1363;-38
2022/09/06 01:47:10;;;;;;;;;;;;;;;26.66;nan;100954.13;5032621;28;1659;-37
2022/09/06 01:49:55;;;;;;;;;;;;;;;26.62;nan;100953.53;5032425;28;1289;-38
2022/09/06 01:52:41;;;;;;;;;;;;;;;26.65;nan;100963.09;5032448;28;633;-36
2022/09/06 01:55:33;;;;;;;;;;;;;;;26.65;nan;100963.94;5032444;28;1338;-37
2022/09/06 01:58:31;;;;;;;;;;;;;;;26.65;nan;100960.44;5032176;28;571;-37
2022/09/06 02:01:20;;;;;;;;;;;;;;;26.70;nan;100955.53;5032198;28;1492;-37
2022/09/06 02:04:08;;;;;;;;;;;;;;;26.68;nan;100955.66;5032410;28;1283;-38
2022/09/06 02:06:58;;;;;;;;;;;;;;;26.63;nan;100956.06;5032527;28;1046;-38
2022/09/06 02:09:46;;;;;;;;;;;;;;;26.65;nan;100958.59;5031907;28;1268;-38
2022/09/06 02:12:34;;;;;;;;;;;;;;;26.65;nan;100950.59;5032149;28;617;-37
2022/09/06 02:15:22;;;;;;;;;;;;;;;26.62;nan;100940.19;5034513;28;1342;-38
2022/09/06 02:18:10;;;;;;;;;;;;;;;26.63;nan;100943.69;5035702;28;606;-37
2022/09/06 02:20:57;;;;;;;;;;;;;;;26.61;nan;100942.00;5036066;28;1297;-37
2022/09/06 02:23:44;;;;;;;;;;;;;;;26.59;nan;100933.28;5035585;28;632;-42
2022/09/06 02:26:32;;;;;;;;;;;;;;;26.57;nan;100940.56;5035972;28;1033;-36
2022/09/06 02:29:18;;;;;;;;;;;;;;;26.57;nan;100940.56;5035272;28;1914;-38
2022/09/06 02:32:08;;;;;;;;;;;;;;;26.54;nan;100935.47;5035889;28;1101;-37
2022/09/06 02:34:55;;;;;;;;;;;;;;;26.53;nan;100935.63;5034437;28;1213;-37
2022/09/06 02:37:40;;;;;;;;;;;;;;;26.53;nan;100933.81;5036130;28;652;-37
2022/09/06 02:40:26;;;;;;;;;;;;;;;26.48;nan;100930.66;5035402;28;1416;-38
2022/09/06 02:43:11;;;;;;;;;;;;;;;26.44;nan;100934.59;5035836;28;630;-37
2022/09/06 02:45:56;;;;;;;;;;;;;;;26.43;nan;100930.22;5036277;28;1347;-37
2022/09/06 02:48:41;;;;;;;;;;;;;;;26.37;nan;100933.44;5035795;28;1899;-37
2022/09/06 02:51:27;;;;;;;;;;;;;;;26.39;nan;100936.81;5035015;28;1136;-38
2022/09/06 02:54:12;;;;;;;;;;;;;;;26.35;nan;100930.06;5035718;28;1264;-37
2022/09/06 02:56:57;;;;;;;;;;;;;;;26.31;nan;100936.63;5036031;28;964;-37
2022/09/06 02:59:42;;;;;;;;;;;;;;;26.32;nan;100935.66;5034340;28;1253;-38
2022/09/06 03:02:28;;;;;;;;;;;;;;;26.35;nan;100939.88;5035231;28;708;-37
2022/09/06 03:05:13;;;;;;;;;;;;;;;26.40;nan;100933.16;5034633;28;1344;-38
2022/09/06 03:07:58;;;;;;;;;;;;;;;26.39;nan;100930.63;5034093;28;1902;-38
2022/09/06 03:10:54;;;;;;;;;;;;;;;26.37;nan;100933.44;5033855;28;1259;-36
2022/09/06 03:13:40;;;;;;;;;;;;;;;26.41;nan;100926.84;5034463;28;693;-37
2022/09/06 03:16:25;;;;;;;;;;;;;;;26.39;nan;100920.78;5034807;28;911;-37
2022/09/06 03:19:10;;;;;;;;;;;;;;;26.37;nan;100920.06;5034686;28;1217;-37
2022/09/06 03:21:56;;;;;;;;;;;;;;;26.39;nan;100915.44;5035126;28;1065;-38
2022/09/06 03:24:41;;;;;;;;;;;;;;;26.34;nan;100917.69;5034392;28;1297;-38
2022/09/06 03:27:26;;;;;;;;;;;;;;;26.32;nan;100910.78;5033676;28;652;-37
2022/09/06 03:30:12;;;;;;;;;;;;;;;26.28;nan;100910.19;5034589;28;1339;-38
2022/09/06 03:32:58;;;;;;;;;;;;;;;26.29;nan;100903.03;5034061;28;669;-37
2022/09/06 03:35:51;;;;;;;;;;;;;;;26.26;nan;100901.47;5034242;28;1348;-37
2022/09/06 03:38:36;;;;;;;;;;;;;;;26.24;nan;100898.06;5034150;28;684;-36
2022/09/06 03:41:22;;;;;;;;;;;;;;;26.29;nan;100905.69;5034512;28;1061;-38
2022/09/06 03:44:07;;;;;;;;;;;;;;;26.27;nan;100904.97;5034624;28;1237;-38
2022/09/06 03:46:52;;;;;;;;;;;;;;;26.22;nan;100902.72;5033821;28;1562;-37
2022/09/06 03:49:38;;;;;;;;;;;;;;;26.19;nan;100915.47;5034099;28;1910;-37
2022/09/06 03:52:23;;;;;;;;;;;;;;;26.22;nan;100907.19;5033962;28;693;-37
2022/09/06 03:55:08;;;;;;;;;;;;;;;26.27;nan;100907.63;5033844;28;1512;-37
2022/09/06 03:57:53;;;;;;;;;;;;;;;26.27;nan;100911.16;5034014;28;704;-37
2022/09/06 04:00:39;;;;;;;;;;;;;;;26.29;nan;100905.69;5033920;28;1346;-38
2022/09/06 04:03:24;;;;;;;;;;;;;;;26.32;nan;100913.44;5033945;28;752;-37
2022/09/06 04:06:10;;;;;;;;;;;;;;;26.36;nan;100914.84;5034330;28;1329;-39
2022/09/06 04:08:55;;;;;;;;;;;;;;;26.38;nan;100916.44;5034127;28;1902;-38
2022/09/06 04:11:41;;;;;;;;;;;;;;;26.40;nan;100919.81;5034261;28;994;-38
2022/09/06 04:14:29;;;;;;;;;;;;;;;26.41;nan;100924.19;5033874;28;1333;-38
2022/09/06 04:17:14;;;;;;;;;;;;;;;26.42;nan;100925.84;5033836;28;622;-37
2022/09/06 04:19:59;;;;;;;;;;;;;;;26.41;nan;100931.34;5033987;28;1348;-37
2022/09/06 04:22:45;;;;;;;;;;;;;;;26.39;nan;100920.78;5033623;28;712;-38
2022/09/06 04:25:30;;;;;;;;;;;;;;;26.41;nan;100926.84;5033332;28;1293;-38
2022/09/06 04:28:17;;;;;;;;;;;;;;;26.40;nan;100929.66;5033635;28;2220;-36
2022/09/06 04:31:02;;;;;;;;;;;;;;;26.40;nan;100929.66;5033393;28;1273;-38
2022/09/06 04:33:49;;;;;;;;;;;;;;;26.37;nan;100928.09;5033528;28;1336;-38
2022/09/06 04:36:34;;;;;;;;;;;;;;;26.41;nan;100934.88;5033556;28;971;-37
2022/09/06 04:39:20;;;;;;;;;;;;;;;26.42;nan;100931.19;5033553;28;1330;-37
2022/09/06 04:42:05;;;;;;;;;;;;;;;26.42;nan;100938.34;5033371;28;1031;-37
2022/09/06 04:44:50;;;;;;;;;;;;;;;26.38;nan;100928.94;5033152;28;1343;-37
2022/09/06 04:47:35;;;;;;;;;;;;;;;26.36;nan;100926.38;5033359;28;1725;-39
2022/09/06 04:50:20;;;;;;;;;;;;;;;26.38;nan;100924.44;5033082;28;1910;-38
2022/09/06 04:53:06;;;;;;;;;;;;;;;26.39;nan;100926.13;5033278;28;688;-38
2022/09/06 04:55:51;;;;;;;;;;;;;;;26.37;nan;100938.78;5033157;28;1265;-39
2022/09/06 04:58:37;;;;;;;;;;;;;;;26.30;nan;100936.75;5032722;28;673;-38
2022/09/06 05:01:24;;;;;;;;;;;;;;;26.33;nan;100936.47;5032238;28;1089;-38
2022/09/06 05:04:10;;;;;;;;;;;;;;;26.31;nan;100935.78;5033131;28;1342;-37
2022/09/06 05:07:03;;;;;;;;;;;;;;;26.26;nan;100946.03;5030136;28;1756;-38
2022/09/06 05:09:49;;;;;;;;;;;;;;;26.21;nan;100938.38;5028912;28;1906;-39
2022/09/06 05:12:34;;;;;;;;;;;;;;;26.22;nan;100944.56;5013459;28;661;-38
2022/09/06 05:15:20;;;;;;;;;;;;;;;26.17;nan;100942.31;5013651;28;1273;-38
2022/09/06 05:18:05;;;;;;;;;;;;;;;26.18;nan;100944.00;5013455;28;554;-38
2022/09/06 05:20:51;;;;;;;;;;;;;;;26.15;nan;100944.25;5017109;28;1260;-40
2022/09/06 05:23:36;;;;;;;;;;;;;;;26.11;nan;100939.28;5032984;28;527;-38
2022/09/06 05:26:21;;;;;;;;;;;;;;;26.11;nan;100937.47;5032526;28;933;-38
2022/09/06 05:29:07;;;;;;;;;;;;;;;26.18;nan;100937.78;5031771;28;1977;-38
2022/09/06 05:31:52;;;;;;;;;;;;;;;26.11;nan;100932.13;5032644;28;1049;-38
2022/09/06 05:34:37;;;;;;;;;;;;;;;26.08;nan;100941.22;5032313;28;1272;-39
2022/09/06 05:37:23;;;;;;;;;;;;;;;26.14;nan;100936.34;5025872;28;749;-39
2022/09/06 05:40:08;;;;;;;;;;;;;;;26.14;nan;100936.34;5012703;28;1249;-39
2022/09/06 05:42:53;;;;;;;;;;;;;;;26.14;nan;100947.88;5012896;28;681;-39
2022/09/06 05:45:39;;;;;;;;;;;;;;;26.15;nan;100954.03;5012611;28;1374;-39
2022/09/06 05:48:24;;;;;;;;;;;;;;;26.19;nan;100953.69;5012998;28;1907;-39
2022/09/06 05:51:13;;;;;;;;;;;;;;;26.20;nan;100960.75;5016949;28;1387;-38
2022/09/06 05:53:58;;;;;;;;;;;;;;;26.23;nan;100968.50;5016444;28;1261;-39
2022/09/06 05:56:44;;;;;;;;;;;;;;;26.22;nan;100965.94;5016501;28;954;-38
2022/09/06 05:59:29;;;;;;;;;;;;;;;26.20;nan;100957.22;5015416;28;1332;-38
2022/09/06 06:02:14;;;;;;;;;;;;;;;26.21;nan;100965.09;5019802;28;1403;-39
2022/09/06 06:05:00;;;;;;;;;;;;;;;26.28;nan;100966.25;5033062;28;1355;-39
2022/09/06 06:07:46;;;;;;;;;;;;;;;26.37;nan;100969.97;5028792;28;684;-41
2022/09/06 06:10:31;;;;;;;;;;;;;;;26.42;nan;100968.59;5021930;28;1970;-39
2022/09/06 06:13:22;;;;;;;;;;;;;;;26.48;nan;100965.41;5027199;28;706;-38
2022/09/06 06:16:11;;;;;;;;;;;;;;;26.50;nan;100971.47;5035371;28;1260;-40
2022/09/06 06:18:57;;;;;;;;;;;;;;;26.56;nan;100975.44;5034798;28;1265;-38
2022/09/06 06:21:42;;;;;;;;;;;;;;;26.56;nan;100970.94;5035000;28;1565;-38
2022/09/06 06:24:27;;;;;;;;;;;;;;;26.61;nan;100973.19;5015098;28;1295;-39
2022/09/06 06:27:13;;;;;;;;;;;;;;;26.61;nan;100968.72;5015259;28;698;-38
2022/09/06 06:29:58;;;;;;;;;;;;;;;26.70;nan;100961.72;5028291;28;1975;-37
2022/09/06 06:32:43;;;;;;;;;;;;;;;26.76;nan;100971.03;5031264;28;1033;-39
2022/09/06 06:35:28;;;;;;;;;;;;;;;26.79;nan;100963.59;5033572;28;1253;-38
2022/09/06 06:38:14;;;;;;;;;;;;;;;26.79;nan;100970.75;5014341;28;1491;-38
2022/09/06 06:40:59;;;;;;;;;;;;;;;26.82;nan;100965.16;5020937;28;1669;-42
2022/09/06 06:43:53;;;;;;;;;;;;;;;26.86;nan;100966.59;5031423;28;1344;-40
2022/09/06 06:46:40;;;;;;;;;;;;;;;26.91;nan;100964.38;5035074;28;1410;-40
2022/09/06 06:49:25;;;;;;;;;;;;;;;26.94;nan;100964.09;5030006;28;1964;-39
2022/09/06 06:52:12;;;;;;;;;;;;;;;26.96;nan;100968.31;5023855;28;1115;-39
2022/09/06 06:54:57;;;;;;;;;;;;;;;27.01;nan;100966.09;5035278;28;1249;-38
2022/09/06 06:57:43;;;;;;;;;;;;;;;26.98;nan;100961.03;5016988;28;1060;-39
2022/09/06 07:00:28;;;;;;;;;;;;;;;26.89;nan;100972.53;5014115;28;1300;-38
2022/09/06 07:03:13;;;;;;;;;;;;;;;26.97;nan;100963.81;5025409;28;1348;-39
2022/09/06 07:05:59;;;;;;;;;;;;;;;27.03;nan;100961.47;5034574;28;1211;-40
2022/09/06 07:08:51;;;;;;;;;;;;;;;27.03;nan;100955.25;5018355;28;1961;-39
2022/09/06 07:11:37;;;;;;;;;;;;;;;27.02;nan;100950.91;5022218;28;1172;-40
2022/09/06 07:14:22;;;;;;;;;;;;;;;27.07;nan;100946.00;5014547;28;1261;-37
2022/09/06 07:17:07;;;;;;;;;;;;;;;27.09;nan;100950.22;5024996;28;1083;-39
2022/09/06 07:19:53;;;;;;;;;;;;;;;27.15;nan;100947.00;5013761;28;1281;-42
2022/09/06 07:23:00;;;;;;;;;;;;;;;27.19;nan;100944.91;5022596;28;1075;-39
2022/09/06 07:26:06;;;;;;;;;;;;;;;27.16;nan;100947.84;5018124;28;1210;-38
2022/09/06 07:28:55;;;;;;;;;;;;;;;27.16;nan;100947.84;5016614;28;1907;-38
2022/09/06 07:31:40;;;;;;;;;;;;;;;27.22;nan;100947.31;5021284;28;1044;-37
2022/09/06 07:34:46;;;;;;;;;;;;;;;27.11;nan;100945.56;5014395;28;1530;-41
2022/09/06 07:37:31;;;;;;;;;;;;;;;27.18;nan;100945.88;5023687;28;1123;-39
2022/09/06 07:40:16;;;;;;;;;;;;;;;27.26;nan;100951.41;5014126;28;1332;-39
2022/09/06 07:43:01;;;;;;;;;;;;;;;27.28;nan;100957.44;5023034;28;985;-39
2022/09/06 07:45:46;;;;;;;;;;;;;;;27.27;nan;100958.41;5014898;28;1359;-39
2022/09/06 07:48:33;;;;;;;;;;;;;;;27.25;nan;100957.72;5022977;28;1554;-38
2022/09/06 07:51:19;;;;;;;;;;;;;;;27.29;nan;100958.31;5027950;28;1466;-39
2022/09/06 07:54:06;;;;;;;;;;;;;;;27.32;nan;100948.19;5017584;28;1300;-38
2022/09/06 07:57:11;;;;;;;;;;;;;;;27.34;nan;100943.53;5025203;28;972;-38
2022/09/06 07:59:57;;;;;;;;;;;;;;;27.35;nan;100942.56;5027958;28;1471;-38
2022/09/06 08:02:42;;;;;;;;;;;;;;;27.34;nan;100943.53;5025353;28;988;-37
2022/09/06 08:05:28;;;;;;;;;;;;;;;27.31;nan;100943.81;5011557;28;1264;-38
2022/09/06 08:08:34;;;;;;;;;;;;;;;27.30;nan;100944.78;5012520;28;1083;-37
2022/09/06 08:11:39;;;;;;;;;;;;;;;27.31;nan;100941.13;5013517;28;927;-38
2022/09/06 08:14:24;;;;;;;;;;;;;;;27.29;nan;100950.28;5012617;28;1269;-37
2022/09/06 08:17:09;;;;;;;;;;;;;;;27.30;nan;100944.78;5013312;28;1020;-38
2022/09/06 08:19:55;;;;;;;;;;;;;;;27.32;nan;100936.63;5013844;28;1351;-37
2022/09/06 08:22:40;;;;;;;;;;;;;;;27.33;nan;100941.81;5012659;28;992;-36
2022/09/06 08:25:25;;;;;;;;;;;;;;;27.34;nan;100940.00;5013601;28;1340;-36
2022/09/06 08:28:10;;;;;;;;;;;;;;;27.35;nan;100947.06;5012880;28;992;-36
2022/09/06 08:31:03;;;;;;;;;;;;;;;27.31;nan;100946.47;5013329;28;1981;-37
2022/09/06 08:33:50;;;;;;;;;;;;;;;27.37;nan;100951.28;5012886;28;1351;-38
2022/09/06 08:36:35;;;;;;;;;;;;;;;27.38;nan;100950.31;5013175;28;1060;-35
2022/09/06 08:39:21;;;;;;;;;;;;;;;27.38;nan;100944.94;5012418;28;1265;-38
2022/09/06 08:42:07;;;;;;;;;;;;;;;27.40;nan;100948.31;5013452;28;1086;-37
2022/09/06 08:44:54;;;;;;;;;;;;;;;27.46;nan;100952.28;5012765;28;1213;-37
2022/09/06 08:47:40;;;;;;;;;;;;;;;27.46;nan;100955.81;5012929;28;1359;-38
2022/09/06 08:50:27;;;;;;;;;;;;;;;27.48;nan;100953.03;5012916;28;1910;-37
2022/09/06 08:53:15;;;;;;;;;;;;;;;27.46;nan;100955.81;5013446;28;993;-38
2022/09/06 08:56:02;;;;;;;;;;;;;;;27.44;nan;100955.13;5012548;28;1372;-37
2022/09/06 08:58:48;;;;;;;;;;;;;;;27.48;nan;100961.06;5025600;28;1032;-37
2022/09/06 09:01:42;;;;;;;;;;;;;;;27.49;nan;100960.91;5013407;28;1047;-38
2022/09/06 09:04:29;;;;;;;;;;;;;;;27.49;nan;100963.56;5011585;28;1340;-40
2022/09/06 09:07:29;;;;;;;;;;;;;;;27.44;nan;100962.31;5012977;28;1032;-38
2022/09/06 09:10:22;;;;;;;;;;;;;;;27.46;nan;100963.84;5012833;28;1903;-39
2022/09/06 09:13:11;;;;;;;;;;;;;;;27.49;nan;100965.41;5012652;28;1032;-39
2022/09/06 09:15:57;;;;;;;;;;;;;;;27.48;nan;100975.25;5032643;28;1332;-39
2022/09/06 09:18:45;;;;;;;;;;;;;;;27.50;nan;100970.63;5017559;28;980;-37
2022/09/06 09:21:33;;;;;;;;;;;;;;;27.48;nan;100972.56;5013096;28;1048;-40
2022/09/06 09:24:18;;;;;;;;;;;;;;;27.50;nan;100967.94;5012407;28;1415;-37
2022/09/06 09:27:09;;;;;;;;;;;;;;;27.53;nan;100973.03;5017076;28;1162;-40
2022/09/06 09:29:56;;;;;;;;;;;;;;;27.56;nan;100970.06;5016360;28;1972;-39
2022/09/06 09:33:19;;;;;;;;;;;;;;;27.60;nan;100970.66;5024494;28;1742;-40
2022/09/06 09:36:10;;;;;;;;;;;;;;;27.61;nan;100970.50;5033921;28;1248;-36
2022/09/06 09:38:57;;;;;;;;;;;;;;;27.59;nan;100963.59;5034741;28;1284;-37
2022/09/06 09:41:42;;;;;;;;;;;;;;;27.63;nan;100970.38;5035078;28;968;-38
2022/09/06 09:44:28;;;;;;;;;;;;;;;27.62;nan;100968.66;5029135;28;1283;-36
2022/09/06 09:47:26;;;;;;;;;;;;;;;27.67;nan;100961.06;5031960;28;1455;-37
2022/09/06 09:50:29;;;;;;;;;;;;;;;27.65;nan;100955.00;5030275;28;1989;-39
2022/09/06 09:53:16;;;;;;;;;;;;;;;27.61;nan;100954.44;5031155;28;873;-36
2022/09/06 09:56:01;;;;;;;;;;;;;;;27.67;nan;100953.03;5017136;28;1407;-38
2022/09/06 09:58:47;;;;;;;;;;;;;;;27.69;nan;100945.72;5031104;28;885;-36
2022/09/06 10:01:32;;;;;;;;;;;;;;;27.83;nan;100947.13;5035289;28;1022;-38
2022/09/06 10:04:27;;;;;;;;;;;;;;;27.78;nan;100944.03;5026050;28;1435;-40
2022/09/06 10:07:30;;;;;;;;;;;;;;;27.73;nan;100940.91;5031455;28;932;-37
2022/09/06 10:10:26;;;;;;;;;;;;;;;27.72;nan;100933.88;5029762;28;2033;-37
2022/09/06 10:13:11;;;;;;;;;;;;;;;27.79;nan;100933.16;5029274;28;956;-37
2022/09/06 10:15:58;;;;;;;;;;;;;;;27.84;nan;100932.75;5035878;28;1392;-37
2022/09/06 10:18:43;;;;;;;;;;;;;;;27.83;nan;100925.69;5014875;28;984;-39
2022/09/06 10:21:29;;;;;;;;;;;;;;;27.85;nan;100926.38;5035160;28;1050;-36
2022/09/06 10:24:17;;;;;;;;;;;;;;;27.89;nan;100922.44;5034969;28;1284;-36
2022/09/06 10:27:09;;;;;;;;;;;;;;;27.90;nan;100911.63;5030997;28;841;-35
2022/09/06 10:29:54;;;;;;;;;;;;;;;28.12;nan;100902.44;5033739;28;1981;-37
2022/09/06 10:32:44;;;;;;;;;;;;;;;28.02;nan;100912.31;5022054;28;857;-36
2022/09/06 10:35:30;;;;;;;;;;;;;;;27.97;nan;100907.34;5030919;28;1374;-37
2022/09/06 10:38:23;;;;;;;;;;;;;;;28.06;nan;100908.34;5028412;28;1451;-39
2022/09/06 10:41:20;;;;;;;;;;;;;;;27.97;nan;100911.88;5033789;28;1246;-37
2022/09/06 10:44:13;;;;;;;;;;;;;;;27.98;nan;100903.72;5029794;28;1351;-36
2022/09/06 10:47:12;;;;;;;;;;;;;;;27.98;nan;100913.56;5029562;28;1646;-37
2022/09/06 10:49:59;;;;;;;;;;;;;;;28.03;nan;100900.59;5028663;28;1908;-37
2022/09/06 10:52:46;;;;;;;;;;;;;;;28.04;nan;100899.59;5029474;28;862;-36
2022/09/06 10:55:32;;;;;;;;;;;;;;;28.03;nan;100890.72;5033824;28;1360;-45
2022/09/06 10:58:26;;;;;;;;;;;;;;;28.00;nan;100893.69;5023577;28;913;-41
2022/09/06 11:01:21;;;;;;;;;;;;;;;28.04;nan;100889.78;5030994;28;1372;-43
2022/09/06 11:04:09;;;;;;;;;;;;;;;28.04;nan;100891.56;5029389;28;1379;-36
2022/09/06 11:06:59;;;;;;;;;;;;;;;28.03;nan;100888.03;5033278;28;1042;-45
2022/09/06 11:09:49;;;;;;;;;;;;;;;28.03;nan;100885.38;5028395;28;1906;-46
2022/09/06 11:12:41;;;;;;;;;;;;;;;28.05;nan;100877.25;5032085;28;877;-46
2022/09/06 11:15:30;;;;;;;;;;;;;;;28.03;nan;100884.50;5033118;28;1509;-46
2022/09/06 11:18:24;;;;;;;;;;;;;;;28.06;nan;100884.25;5032230;28;933;-47
2022/09/06 11:21:29;;;;;;;;;;;;;;;28.13;nan;100874.66;5033868;28;1483;-46
2022/09/06 11:24:33;;;;;;;;;;;;;;;28.12;nan;100875.66;5033445;28;1288;-47
2022/09/06 11:27:22;;;;;;;;;;;;;;;28.12;nan;100876.50;5029925;28;1217;-45
2022/09/06 11:30:13;;;;;;;;;;;;;;;28.16;nan;100869.88;5026191;28;1903;-45
2022/09/06 11:33:09;;;;;;;;;;;;;;;28.12;nan;100870.28;5019739;28;902;-37
2022/09/06 11:36:14;;;;;;;;;;;;;;;28.14;nan;100865.66;5034062;28;1264;-37
2022/09/06 11:39:01;;;;;;;;;;;;;;;28.15;nan;100867.31;5027964;28;1280;-37
2022/09/06 11:41:46;;;;;;;;;;;;;;;28.18;nan;100867.03;5034075;28;1005;-37
2022/09/06 11:44:50;;;;;;;;;;;;;;;28.25;nan;100872.66;5030404;28;1276;-38
2022/09/06 11:47:36;;;;;;;;;;;;;;;28.21;nan;100867.59;5022608;28;1442;-36
2022/09/06 11:50:25;;;;;;;;;;;;;;;28.29;nan;100874.06;5033911;28;1906;-37
2022/09/06 11:53:17;;;;;;;;;;;;;;;28.37;nan;100874.16;5029171;28;932;-35
2022/09/06 11:56:02;;;;;;;;;;;;;;;28.40;nan;100872.03;5032648;28;1260;-46
2022/09/06 11:58:52;;;;;;;;;;;;;;;28.44;nan;100862.72;5029274;28;908;-46
2022/09/06 12:01:39;;;;;;;;;;;;;;;28.48;nan;100868.66;5028118;28;1021;-48
2022/09/06 12:04:45;;;;;;;;;;;;;;;28.48;nan;100863.28;5022890;28;1445;-38
2022/09/06 12:07:31;;;;;;;;;;;;;;;28.46;nan;100859.88;5026889;28;912;-37
2022/09/06 12:10:28;;;;;;;;;;;;;;;28.50;nan;100870.19;5033345;28;1981;-37
2022/09/06 12:13:32;;;;;;;;;;;;;;;28.05;nan;100855.81;5026837;28;925;-40
2022/09/06 12:16:19;;;;;;;;;;;;;;;27.34;nan;100865.09;5027756;28;1036;-39
2022/09/06 12:19:05;;;;;;;;;;;;;;;27.04;nan;100852.69;5031601;28;1395;-39
2022/09/06 12:21:51;;;;;;;;;;;;;;;26.84;nan;100856.31;5033610;28;1103;-37
2022/09/06 12:24:37;;;;;;;;;;;;;;;26.61;nan;100858.31;5026496;28;1325;-36
2022/09/06 12:27:24;;;;;;;;;;;;;;;26.44;nan;100858.97;5032361;28;885;-37
2022/09/06 12:30:11;;;;;;;;;;;;;;;26.46;nan;100857.84;5032594;28;1999;-41
2022/09/06 12:32:57;;;;;;;;;;;;;;;26.67;nan;100856.94;5027043;28;845;-41
2022/09/06 12:35:42;;;;;;;;;;;;;;;26.71;nan;100855.69;5032697;28;1293;-39
2022/09/06 12:38:53;;;;;;;;;;;;;;;26.73;nan;100864.41;5022623;28;869;-44
2022/09/06 12:41:42;;;;;;;;;;;;;;;26.66;nan;100857.94;5033283;28;1113;-42
2022/09/06 12:44:35;;;;;;;;;;;;;;;26.51;nan;100858.28;5030554;28;1356;-44
2022/09/06 12:47:34;;;;;;;;;;;;;;;26.48;nan;100855.88;5028877;28;1141;-44
2022/09/06 12:50:22;;;;;;;;;;;;;;;26.38;nan;100849.69;5028933;28;1995;-44
2022/09/06 12:53:23;;;;;;;;;;;;;;;26.38;nan;100857.69;5028388;28;936;-44
2022/09/06 12:56:11;;;;;;;;;;;;;;;26.36;nan;100851.59;5032197;28;1328;-45
2022/09/06 12:59:09;;;;;;;;;;;;;;;26.26;nan;100845.41;5026424;28;1415;-43
2022/09/06 13:01:55;;;;;;;;;;;;;;;26.27;nan;100854.22;5031052;28;1462;-45
2022/09/06 13:04:41;;;;;;;;;;;;;;;26.29;nan;100849.63;5029843;28;1455;-41
2022/09/06 13:07:27;;;;;;;;;;;;;;;26.29;nan;100844.28;5030088;28;775;-43
2022/09/06 13:10:15;;;;;;;;;;;;;;;26.34;nan;100836.72;5031137;28;1906;-41
2022/09/06 13:13:01;;;;;;;;;;;;;;;26.24;nan;100833.13;5029150;28;1482;-46
2022/09/06 13:15:47;;;;;;;;;;;;;;;26.25;nan;100843.69;5027820;28;1456;-45
2022/09/06 13:18:36;;;;;;;;;;;;;;;26.22;nan;100833.28;5029878;28;878;-45
2022/09/06 13:21:29;;;;;;;;;;;;;;;26.21;nan;100833.41;5031535;28;1003;-46
2022/09/06 13:24:27;;;;;;;;;;;;;;;26.18;nan;100831.00;5029724;28;1344;-47
2022/09/06 13:27:24;;;;;;;;;;;;;;;26.20;nan;100821.06;5027295;28;1454;-37
2022/09/06 13:30:27;;;;;;;;;;;;;;;26.16;nan;100822.28;5030312;28;1980;-36
2022/09/06 13:33:24;;;;;;;;;;;;;;;26.09;nan;100817.44;5024348;28;1435;-35
2022/09/06 13:36:09;;;;;;;;;;;;;;;26.08;nan;100815.75;5031557;28;1273;-35
2022/09/06 13:38:55;;;;;;;;;;;;;;;26.05;nan;100809.84;5025566;28;1299;-34
2022/09/06 13:41:41;;;;;;;;;;;;;;;26.09;nan;100805.91;5030100;28;1519;-34
2022/09/06 13:44:28;;;;;;;;;;;;;;;26.15;nan;100794.75;5029006;28;1451;-33
2022/09/06 13:47:14;;;;;;;;;;;;;;;26.01;nan;100787.91;5028032;28;1470;-40
2022/09/06 13:49:59;;;;;;;;;;;;;;;26.05;nan;100789.31;5029474;28;1451;-42
2022/09/06 13:52:44;;;;;;;;;;;;;;;26.04;nan;100797.47;5026703;28;1372;-41
2022/09/06 13:55:30;;;;;;;;;;;;;;;25.97;nan;100783.81;5029743;28;1311;-40
2022/09/06 13:58:16;;;;;;;;;;;;;;;25.95;nan;100787.59;5028965;28;1309;-41
2022/09/06 14:01:02;;;;;;;;;;;;;;;25.99;nan;100787.19;5027279;28;1323;-42
2022/09/06 14:03:48;;;;;;;;;;;;;;;25.99;nan;100783.69;5029595;28;1494;-44
2022/09/06 14:06:35;;;;;;;;;;;;;;;26.01;nan;100776.41;5027178;28;1440;-45
2022/09/06 14:09:21;;;;;;;;;;;;;;;25.96;nan;100775.97;5027858;28;1328;-44
2022/09/06 14:12:07;;;;;;;;;;;;;;;25.99;nan;100778.34;5031708;28;1985;-42
2022/09/06 14:14:53;;;;;;;;;;;;;;;25.96;nan;100773.28;5025136;28;1359;-44
2022/09/06 14:17:39;;;;;;;;;;;;;;;25.98;nan;100776.66;5027345;28;1471;-45
2022/09/06 14:20:24;;;;;;;;;;;;;;;25.94;nan;100772.56;5030966;28;1573;-49
2022/09/06 14:23:09;;;;;;;;;;;;;;;25.97;nan;100774.97;5030526;28;854;-38
2022/09/06 14:25:55;;;;;;;;;;;;;;;25.95;nan;100761.75;5034310;28;1265;-34
2022/09/06 14:28:41;;;;;;;;;;;;;;;26.00;nan;100761.34;5022918;28;897;-34
2022/09/06 14:31:26;;;;;;;;;;;;;;;26.63;nan;100753.00;5032403;28;1910;-42
2022/09/06 14:34:12;;;;;;;;;;;;;;;26.97;nan;100749.97;5026551;28;1360;-41
2022/09/06 14:36:57;;;;;;;;;;;;;;;27.13;nan;100751.13;5028531;28;1388;-43
2022/09/06 14:39:42;;;;;;;;;;;;;;;26.52;nan;100750.47;5030009;28;1447;-42
2022/09/06 14:42:27;;;;;;;;;;;;;;;26.29;nan;100751.69;5025890;28;1335;-43
2022/09/06 14:45:13;;;;;;;;;;;;;;;26.19;nan;100753.47;5029465;28;1383;-42
2022/09/06 14:47:58;;;;;;;;;;;;;;;26.02;nan;100748.72;5028511;28;1349;-43
2022/09/06 14:50:43;;;;;;;;;;;;;;;26.03;nan;100747.72;5032813;28;1981;-39
2022/09/06 14:53:28;;;;;;;;;;;;;;;25.97;nan;100743.78;5027522;28;1396;-42
2022/09/06 14:56:25;;;;;;;;;;;;;;;25.93;nan;100753.03;5032561;28;1447;-40
2022/09/06 14:59:11;;;;;;;;;;;;;;;25.91;nan;100748.81;5031806;28;1296;-44
2022/09/06 15:01:56;;;;;;;;;;;;;;;25.97;nan;100742.94;5022487;28;1171;-43
2022/09/06 15:04:42;;;;;;;;;;;;;;;25.91;nan;100735.47;5029964;28;1479;-44